createdAt,value
2018-09-03T00:00:31.353Z,100.00
2018-09-03T00:03:00.625Z,100.00
2018-09-03T00:05:32.449Z,100.00
2018-09-03T00:08:01.659Z,100.00
2018-09-03T00:10:30.833Z,100.00
2018-09-03T00:13:01.100Z,100.00
2018-09-03T00:15:30.308Z,100.00
2018-09-03T00:17:59.521Z,100.00
2018-09-03T00:20:29.094Z,100.00
2018-09-03T00:38:53.451Z,100.00
2018-09-03T00:41:28.859Z,100.00
2018-09-03T00:44:04.147Z,100.00
2018-09-03T00:46:42.523Z,100.00
2018-09-03T00:49:12.643Z,100.00
2018-09-03T00:51:41.890Z,100.00
2018-09-03T00:54:11.066Z,100.00
2018-09-03T00:56:48.623Z,100.00
2018-09-03T00:59:17.831Z,100.00
2018-09-03T01:01:47.065Z,100.00
2018-09-03T01:04:16.275Z,100.00
2018-09-03T01:06:45.426Z,100.00
2018-09-03T01:09:14.627Z,100.00
2018-09-03T01:11:43.827Z,100.00
2018-09-03T01:14:13.046Z,100.00
2018-09-03T01:16:42.255Z,100.00
2018-09-03T01:19:11.447Z,100.00
2018-09-03T01:21:40.655Z,100.00
2018-09-03T01:24:11.656Z,100.00
2018-09-03T01:26:40.941Z,100.00
2018-09-03T01:29:10.170Z,100.00
2018-09-03T01:31:39.335Z,100.00
2018-09-03T01:34:08.520Z,100.00
2018-09-03T01:36:37.733Z,100.00
2018-09-03T01:39:10.299Z,100.00
2018-09-03T01:41:39.503Z,100.00
2018-09-03T01:44:08.707Z,100.00
2018-09-03T01:46:37.905Z,100.00
2018-09-03T01:49:07.109Z,100.00
2018-09-03T01:51:36.297Z,100.00
2018-09-03T01:54:05.501Z,100.00
2018-09-03T01:56:34.663Z,100.00
2018-09-03T01:59:03.889Z,100.00
2018-09-03T02:01:33.085Z,100.00
2018-09-03T02:04:02.333Z,100.00
2018-09-03T02:06:31.501Z,100.00
2018-09-03T02:09:00.901Z,100.00
2018-09-03T02:11:30.248Z,100.00
2018-09-03T02:14:00.505Z,100.00
2018-09-03T02:16:31.993Z,100.00
2018-09-03T02:19:01.554Z,100.00
2018-09-03T02:21:31.224Z,100.00
2018-09-03T02:24:01.059Z,100.00
2018-09-03T02:26:30.439Z,100.00
2018-09-03T02:29:00.714Z,100.00
2018-09-03T02:31:30.401Z,100.00
2018-09-03T02:38:53.775Z,100.00
2018-09-03T02:41:22.962Z,100.00
2018-09-03T02:43:52.162Z,100.00
2018-09-03T02:46:21.359Z,100.00
2018-09-03T02:48:51.423Z,100.00
2018-09-03T02:51:20.627Z,100.00
2018-09-03T02:53:49.801Z,100.00
2018-09-03T02:56:18.990Z,100.00
2018-09-03T02:58:48.195Z,100.00
2018-09-03T03:01:17.421Z,100.00
2018-09-03T03:03:46.677Z,100.00
2018-09-03T03:06:15.872Z,100.00
2018-09-03T03:08:45.887Z,100.00
2018-09-03T03:11:15.189Z,100.00
2018-09-03T03:13:44.339Z,100.00
2018-09-03T03:16:13.534Z,100.00
2018-09-03T03:18:42.809Z,100.00
2018-09-03T03:21:12.757Z,100.00
2018-09-03T03:23:43.662Z,100.00
2018-09-03T03:26:12.964Z,100.00
2018-09-03T03:28:42.136Z,100.00
2018-09-03T03:31:11.363Z,100.00
2018-09-03T03:33:40.559Z,100.00
2018-09-03T03:36:09.768Z,100.00
2018-09-03T03:38:38.962Z,100.00
2018-09-03T03:41:08.147Z,100.00
2018-09-03T03:43:37.484Z,100.00
2018-09-03T03:46:06.817Z,100.00
2018-09-03T03:48:36.084Z,100.00
2018-09-03T03:51:05.250Z,100.00
2018-09-03T03:53:34.469Z,100.00
2018-09-03T03:56:04.437Z,100.00
2018-09-03T03:58:33.618Z,100.00
2018-09-03T04:01:02.852Z,100.00
2018-09-03T04:03:32.091Z,100.00
2018-09-03T04:06:04.168Z,100.00
2018-09-03T04:08:33.350Z,100.00
2018-09-03T04:11:02.531Z,100.00
2018-09-03T04:13:31.712Z,100.00
2018-09-03T04:21:07.910Z,100.00
2018-09-03T04:23:38.966Z,100.00
2018-09-03T04:26:08.280Z,100.00
2018-09-03T04:28:37.513Z,100.00
2018-09-03T04:31:06.766Z,100.00
2018-09-03T04:33:35.962Z,100.00
2018-09-03T04:36:08.005Z,100.00
2018-09-03T04:38:37.218Z,100.00
2018-09-03T04:41:06.540Z,100.00
2018-09-03T04:43:35.868Z,100.00
2018-09-03T04:46:06.940Z,100.00
2018-09-03T04:48:36.230Z,100.00
2018-09-03T04:51:05.499Z,100.00
2018-09-03T04:53:38.035Z,100.00
2018-09-03T04:56:08.887Z,100.00
2018-09-03T04:58:38.171Z,100.00
2018-09-03T05:01:08.160Z,100.00
2018-09-03T05:03:37.475Z,100.00
2018-09-03T05:06:09.429Z,100.00
2018-09-03T05:08:38.614Z,100.00
2018-09-03T05:11:07.835Z,100.00
2018-09-03T05:13:38.751Z,100.00
2018-09-03T05:16:08.761Z,100.00
2018-09-03T05:18:37.983Z,100.00
2018-09-03T05:21:07.216Z,100.00
2018-09-03T05:23:36.457Z,100.00
2018-09-03T05:26:05.860Z,100.00
2018-09-03T05:28:35.823Z,100.00
2018-09-03T05:31:05.135Z,100.00
2018-09-03T05:33:34.351Z,100.00
2018-09-03T05:36:03.579Z,100.00
2018-09-03T05:38:32.791Z,100.00
2018-09-03T05:46:14.996Z,100.00
2018-09-03T05:48:44.215Z,100.00
2018-09-03T05:51:13.461Z,100.00
2018-09-03T05:53:42.675Z,100.00
2018-09-03T05:56:12.669Z,100.00
2018-09-03T05:58:41.957Z,100.00
2018-09-03T06:01:11.161Z,100.00
2018-09-03T06:03:40.644Z,100.00
2018-09-03T06:06:09.828Z,100.00
2018-09-03T06:08:39.019Z,100.00
2018-09-03T06:11:08.349Z,100.00
2018-09-03T06:13:37.521Z,100.00
2018-09-03T06:16:06.864Z,100.00
2018-09-03T06:18:36.069Z,100.00
2018-09-03T06:21:05.342Z,100.00
2018-09-03T06:23:34.680Z,100.00
2018-09-03T06:26:04.059Z,100.00
2018-09-03T06:28:34.836Z,100.00
2018-09-03T06:31:04.261Z,100.00
2018-09-03T06:33:33.481Z,100.00
2018-09-03T06:36:05.793Z,100.00
2018-09-03T06:38:34.979Z,100.00
2018-09-03T06:41:04.185Z,99.30
2018-09-03T06:43:33.680Z,99.26
2018-09-03T07:12:20.833Z,97.00
2018-09-03T07:14:50.060Z,97.19
2018-09-03T07:17:19.379Z,97.32
2018-09-03T07:19:48.625Z,96.41
2018-09-03T07:22:17.820Z,96.24
2018-09-03T07:24:47.011Z,96.20
2018-09-03T07:27:16.940Z,96.00
2018-09-03T07:29:48.021Z,95.25
2018-09-03T07:32:17.221Z,95.92
2018-09-03T07:34:46.354Z,95.27
2018-09-03T07:37:21.023Z,95.06
2018-09-03T07:39:50.133Z,95.63
2018-09-03T07:42:19.263Z,95.15
2018-09-03T07:44:48.409Z,94.72
2018-09-03T07:47:17.477Z,93.58
2018-09-03T07:49:46.638Z,94.40
2018-09-03T07:52:15.741Z,93.67
2018-09-03T07:54:44.894Z,93.67
2018-09-03T07:57:13.989Z,93.56
2018-09-03T07:59:43.112Z,93.80
2018-09-03T08:02:12.210Z,93.62
2018-09-03T08:04:41.353Z,93.53
2018-09-03T08:07:10.429Z,92.87
2018-09-03T08:09:39.530Z,92.96
2018-09-03T08:12:08.688Z,93.37
2018-09-03T08:14:37.797Z,93.43
2018-09-03T08:17:06.907Z,94.02
2018-09-03T08:19:36.024Z,93.62
2018-09-03T08:22:05.288Z,92.72
2018-09-03T08:24:34.610Z,90.61
2018-09-03T08:27:05.211Z,90.84
2018-09-03T08:29:34.664Z,90.65
2018-09-03T08:32:04.731Z,91.16
2018-09-03T08:34:34.667Z,90.49
2018-09-03T08:37:04.688Z,88.71
2018-09-03T08:39:33.860Z,88.68
2018-09-03T08:42:02.964Z,87.31
2018-09-03T08:44:32.056Z,87.62
2018-09-03T08:47:01.198Z,87.83
2018-09-03T08:49:30.356Z,86.75
2018-09-03T08:51:59.498Z,86.87
2018-09-03T08:54:28.622Z,85.94
2018-09-03T08:56:57.715Z,86.41
2018-09-03T08:59:26.817Z,85.61
2018-09-03T09:01:55.910Z,86.07
2018-09-03T09:04:25.028Z,84.81
2018-09-03T09:06:54.137Z,84.96
2018-09-03T09:09:23.235Z,85.38
2018-09-03T09:11:52.424Z,84.79
2018-09-03T09:14:21.504Z,85.03
2018-09-03T09:16:50.595Z,83.65
2018-09-03T09:19:19.713Z,83.62
2018-09-03T09:21:48.772Z,83.52
2018-09-03T09:24:17.878Z,83.66
2018-09-03T09:26:46.958Z,83.88
2018-09-03T09:29:16.073Z,83.17
2018-09-03T09:31:45.246Z,83.90
2018-09-03T09:34:14.316Z,83.83
2018-09-03T09:36:43.442Z,84.28
2018-09-03T09:39:12.519Z,84.19
2018-09-03T09:41:41.597Z,83.49
2018-09-03T09:44:10.760Z,83.63
2018-09-03T09:46:39.852Z,83.95
2018-09-03T09:49:08.975Z,83.20
2018-09-03T09:51:38.123Z,83.66
2018-09-03T09:54:07.280Z,83.97
2018-09-03T09:56:36.382Z,83.55
2018-09-03T09:59:06.118Z,82.63
2018-09-03T10:01:37.133Z,83.25
2018-09-03T10:04:06.859Z,82.58
2018-09-03T10:06:36.260Z,81.94
2018-09-03T10:09:07.591Z,82.60
2018-09-03T10:11:43.319Z,82.15
2018-09-03T10:14:12.435Z,83.62
2018-09-03T10:16:41.497Z,82.71
2018-09-03T10:19:10.625Z,81.67
2018-09-03T10:21:39.694Z,82.48
2018-09-03T10:24:08.895Z,82.50
2018-09-03T10:26:38.031Z,83.06
2018-09-03T10:29:07.158Z,82.72
2018-09-03T10:31:36.319Z,82.66
2018-09-03T10:34:05.826Z,83.08
2018-09-03T10:36:35.746Z,82.05
2018-09-03T10:39:07.830Z,82.74
2018-09-03T10:41:37.118Z,82.07
2018-09-03T10:44:06.492Z,82.35
2018-09-03T10:46:35.877Z,82.16
2018-09-03T10:49:05.969Z,82.01
2018-09-03T10:51:36.123Z,81.87
2018-09-03T10:54:05.953Z,81.69
2018-09-03T10:56:35.991Z,81.86
2018-09-03T10:59:06.538Z,79.68
2018-09-03T11:01:35.938Z,80.74
2018-09-03T11:04:06.183Z,80.21
2018-09-03T11:06:35.966Z,81.49
2018-09-03T11:09:09.018Z,81.58
2018-09-03T11:11:38.194Z,82.05
2018-09-03T11:14:07.825Z,81.52
2018-09-03T11:16:37.538Z,79.31
2018-09-03T11:19:06.735Z,80.43
2018-09-03T11:21:36.274Z,80.75
2018-09-03T11:24:06.189Z,80.42
2018-09-03T11:26:36.071Z,80.82
2018-09-03T11:29:06.131Z,80.78
2018-09-03T11:31:36.459Z,79.87
2018-09-03T11:34:06.063Z,79.49
2018-09-03T11:36:36.613Z,78.40
2018-09-03T11:39:08.350Z,78.50
2018-09-03T11:41:37.452Z,78.28
2018-09-03T11:44:06.669Z,79.30
2018-09-03T11:46:36.451Z,77.41
2018-09-03T11:49:06.730Z,77.33
2018-09-03T11:51:36.223Z,76.68
2018-09-03T11:54:06.199Z,76.75
2018-09-03T11:56:36.211Z,77.69
2018-09-03T11:59:06.445Z,78.89
2018-09-03T12:01:36.178Z,75.26
2018-09-03T12:04:06.339Z,75.91
2018-09-03T12:06:36.225Z,75.42
2018-09-03T12:09:08.566Z,75.89
2018-09-03T12:11:37.684Z,72.69
2018-09-03T12:14:17.966Z,71.54
2018-09-03T12:16:47.142Z,74.18
2018-09-03T12:19:16.220Z,74.82
2018-09-03T12:21:45.305Z,75.10
2018-09-03T12:24:14.415Z,74.50
2018-09-03T12:26:43.553Z,75.37
2018-09-03T12:29:12.661Z,76.49
2018-09-03T12:31:41.850Z,76.63
2018-09-03T12:34:11.030Z,76.63
2018-09-03T12:36:40.117Z,73.93
2018-09-03T12:39:10.818Z,74.76
2018-09-03T12:41:39.953Z,72.14
2018-09-03T12:44:09.081Z,70.99
2018-09-03T12:46:38.339Z,72.16
2018-09-03T12:49:07.452Z,72.48
2018-09-03T12:51:36.614Z,71.71
2018-09-03T12:54:06.422Z,72.58
2018-09-03T12:56:36.382Z,70.73
2018-09-03T12:59:06.644Z,70.43
2018-09-03T13:01:36.615Z,69.38
2018-09-03T13:04:06.574Z,69.85
2018-09-03T13:06:36.468Z,69.33
2018-09-03T13:09:07.786Z,71.22
2018-09-03T13:11:36.932Z,71.80
2018-09-03T13:14:06.619Z,66.85
2018-09-03T13:16:36.453Z,67.72
2018-09-03T13:19:06.695Z,67.77
2018-09-03T13:21:36.588Z,69.17
2018-09-03T13:24:06.549Z,69.51
2018-09-03T13:26:36.795Z,68.64
2018-09-03T13:29:06.571Z,70.35
2018-09-03T13:31:36.661Z,70.52
2018-09-03T13:34:06.604Z,70.01
2018-09-03T13:36:37.104Z,70.39
2018-09-03T13:39:08.334Z,70.39
2018-09-03T13:41:37.573Z,69.51
2018-09-03T13:44:06.807Z,70.46
2018-09-03T13:46:36.606Z,70.96
2018-09-03T13:49:06.733Z,68.75
2018-09-03T13:51:36.568Z,70.28
2018-09-03T13:54:05.951Z,70.12
2018-09-03T13:56:35.062Z,68.43
2018-09-03T13:59:05.111Z,68.09
2018-09-03T14:01:34.286Z,68.79
2018-09-03T14:04:03.442Z,68.94
2018-09-03T14:06:32.580Z,69.08
2018-09-03T14:09:01.644Z,71.44
2018-09-03T14:11:30.702Z,71.74
2018-09-03T14:13:59.862Z,71.32
2018-09-03T14:16:29.003Z,72.49
2018-09-03T14:18:58.104Z,71.59
2018-09-03T14:21:27.258Z,72.29
2018-09-03T14:23:56.389Z,70.85
2018-09-03T14:26:25.532Z,64.94
2018-09-03T14:28:54.589Z,67.50
2018-09-03T14:31:24.221Z,66.31
2018-09-03T14:33:53.466Z,64.27
2018-09-03T14:36:22.591Z,64.61
2018-09-03T14:38:52.064Z,62.89
2018-09-03T14:41:21.231Z,60.45
2018-09-03T14:43:50.372Z,60.98
2018-09-03T14:46:19.548Z,60.02
2018-09-03T14:48:48.739Z,58.69
2018-09-03T14:51:17.923Z,56.39
2018-09-03T14:53:47.523Z,57.25
2018-09-03T14:56:16.712Z,56.97
2018-09-03T14:58:46.071Z,54.46
2018-09-03T15:01:15.167Z,54.16
2018-09-03T15:03:44.823Z,55.14
2018-09-03T15:06:13.888Z,55.16
2018-09-03T15:08:42.978Z,61.25
2018-09-03T15:11:12.501Z,59.55
2018-09-03T15:13:43.098Z,61.32
2018-09-03T15:16:12.193Z,62.70
2018-09-03T15:18:41.264Z,59.38
2018-09-03T15:21:10.442Z,58.80
2018-09-03T15:23:39.504Z,60.68
2018-09-03T15:26:08.637Z,59.89
2018-09-03T15:28:37.690Z,63.71
2018-09-03T15:31:07.291Z,62.68
2018-09-03T15:33:37.160Z,64.49
2018-09-03T15:36:07.138Z,62.24
2018-09-03T15:38:37.093Z,63.94
2018-09-03T15:41:07.499Z,65.94
2018-09-03T15:43:37.367Z,64.67
2018-09-03T15:46:08.696Z,67.82
2018-09-03T15:48:37.924Z,67.29
2018-09-03T15:51:07.200Z,67.77
2018-09-03T15:53:37.191Z,66.49
2018-09-03T15:56:07.257Z,66.95
2018-09-03T15:58:37.178Z,67.70
2018-09-03T16:01:07.308Z,66.61
2018-09-03T16:03:37.235Z,67.15
2018-09-03T16:06:07.402Z,67.71
2018-09-03T16:08:37.332Z,68.57
2018-09-03T16:11:07.273Z,68.73
2018-09-03T16:13:37.281Z,68.68
2018-09-03T16:16:07.457Z,67.75
2018-09-03T16:18:37.429Z,68.66
2018-09-03T16:21:07.340Z,68.63
2018-09-03T16:23:37.367Z,68.05
2018-09-03T16:26:07.314Z,68.91
2018-09-03T16:28:37.382Z,68.32
2018-09-03T16:31:07.571Z,69.24
2018-09-03T16:33:37.502Z,69.77
2018-09-03T16:36:07.609Z,70.47
2018-09-03T16:38:37.558Z,71.50
2018-09-03T16:41:07.370Z,70.08
2018-09-03T16:43:37.491Z,70.55
2018-09-03T16:46:07.459Z,70.64
2018-09-03T16:48:37.570Z,71.00
2018-09-03T16:51:07.442Z,70.86
2018-09-03T16:53:37.557Z,71.11
2018-09-03T16:56:07.410Z,71.46
2018-09-03T16:58:36.482Z,72.48
2018-09-03T17:01:05.756Z,72.65
2018-09-03T17:03:34.765Z,72.62
2018-09-03T17:06:03.868Z,73.13
2018-09-03T17:08:32.939Z,73.74
2018-09-03T17:11:02.079Z,73.96
2018-09-03T17:13:31.256Z,74.06
2018-09-03T17:16:00.378Z,75.46
2018-09-03T17:18:29.548Z,74.73
2018-09-03T17:20:58.851Z,75.78
2018-09-03T17:23:27.927Z,76.04
2018-09-03T17:25:57.041Z,76.65
2018-09-03T17:28:26.211Z,77.16
2018-09-03T17:30:55.981Z,76.92
2018-09-03T17:33:25.115Z,77.91
2018-09-03T17:35:54.292Z,78.48
2018-09-03T17:38:23.406Z,79.98
2018-09-03T17:40:52.490Z,81.11
2018-09-03T17:43:21.578Z,83.38
2018-09-03T17:45:50.693Z,84.71
2018-09-03T17:48:19.862Z,85.06
2018-09-03T17:50:49.007Z,86.55
2018-09-03T17:53:18.209Z,86.88
2018-09-03T17:55:47.300Z,87.28
2018-09-03T17:58:16.490Z,87.71
2018-09-03T18:00:45.672Z,88.07
2018-09-03T18:03:14.893Z,88.76
2018-09-03T18:05:44.046Z,88.61
2018-09-03T18:08:14.142Z,88.21
2018-09-03T18:10:43.276Z,89.17
2018-09-03T18:13:12.449Z,88.83
2018-09-03T18:15:41.697Z,89.63
2018-09-03T18:18:10.950Z,89.91
2018-09-03T18:20:40.306Z,89.32
2018-09-03T18:23:09.769Z,90.03
2018-09-03T18:25:47.496Z,89.81
2018-09-03T18:28:17.729Z,90.72
2018-09-03T18:30:47.150Z,90.39
2018-09-03T18:33:17.974Z,90.46
2018-09-03T18:35:47.322Z,91.09
2018-09-03T18:38:16.566Z,92.28
2018-09-03T18:40:45.961Z,91.81
2018-09-03T18:43:15.329Z,92.28
2018-09-03T18:45:44.694Z,92.32
2018-09-03T18:48:14.005Z,92.75
2018-09-03T18:50:43.417Z,93.29
2018-09-03T18:53:12.770Z,93.00
2018-09-03T18:55:42.131Z,93.66
2018-09-03T18:58:11.485Z,93.88
2018-09-03T19:00:40.913Z,93.73
2018-09-03T19:03:10.360Z,94.15
2018-09-03T19:05:39.776Z,95.31
2018-09-03T19:08:09.265Z,95.48
2018-09-03T19:10:38.782Z,96.42
2018-09-03T19:13:08.433Z,96.82
2018-09-03T19:15:38.584Z,96.79
2018-09-03T19:18:08.455Z,97.06
2018-09-03T19:20:39.306Z,97.45
2018-09-03T19:23:08.777Z,98.18
2018-09-03T19:25:38.652Z,98.65
2018-09-03T19:28:08.692Z,98.64
2018-09-03T19:30:38.784Z,98.86
2018-09-03T19:33:08.620Z,99.16
2018-09-03T19:35:39.194Z,99.17
2018-09-03T19:38:09.077Z,99.49
2018-09-03T19:40:38.726Z,99.62
2018-09-03T19:43:09.042Z,99.15
2018-09-03T19:45:38.328Z,99.26
2018-09-03T19:48:07.736Z,100.00
2018-09-03T19:50:37.038Z,99.86
2018-09-03T19:53:06.732Z,100.00
2018-09-03T19:55:37.329Z,100.00
2018-09-03T19:58:06.750Z,99.52
2018-09-03T20:00:36.199Z,99.67
2018-09-03T20:03:05.800Z,99.63
2018-09-03T20:05:36.025Z,99.19
2018-09-03T20:08:06.054Z,99.12
2018-09-03T20:10:35.384Z,99.74
2018-09-03T20:13:04.696Z,99.18
2018-09-03T20:15:34.715Z,99.60
2018-09-03T20:18:03.958Z,99.47
2018-09-03T20:20:33.133Z,99.44
2018-09-03T20:23:02.382Z,99.09
2018-09-03T20:25:31.720Z,99.46
2018-09-03T20:28:00.861Z,99.90
2018-09-03T20:30:30.063Z,98.99
2018-09-03T20:32:59.249Z,99.22
2018-09-03T20:35:28.426Z,99.28
2018-09-03T20:37:57.616Z,99.53
2018-09-03T20:40:26.823Z,99.38
2018-09-03T20:42:56.081Z,99.23
2018-09-03T20:45:25.142Z,99.87
2018-09-03T20:47:54.336Z,99.57
2018-09-03T20:50:23.531Z,99.68
2018-09-03T20:52:52.703Z,99.86
2018-09-03T20:55:21.886Z,100.00
2018-09-03T20:57:51.042Z,100.00
2018-09-03T21:00:20.246Z,99.73
2018-09-03T21:02:49.496Z,99.79
2018-09-03T21:05:18.674Z,99.74
2018-09-03T21:07:48.283Z,100.00
2018-09-03T21:10:17.403Z,99.86
2018-09-03T21:12:47.210Z,99.77
2018-09-03T21:15:16.417Z,100.00
2018-09-03T21:17:45.651Z,100.00
2018-09-03T21:20:15.009Z,100.00
2018-09-03T21:25:43.609Z,100.00
2018-09-03T21:28:12.945Z,100.00
2018-09-03T21:30:42.386Z,100.00
2018-09-03T21:33:12.467Z,100.00
2018-09-03T21:35:42.542Z,100.00
2018-09-03T21:38:12.550Z,100.00
2018-09-03T21:40:42.378Z,100.00
2018-09-03T21:43:12.548Z,100.00
2018-09-03T21:45:42.458Z,100.00
2018-09-03T21:48:12.490Z,100.00
2018-09-03T21:50:42.474Z,100.00
2018-09-03T21:53:12.599Z,100.00
2018-09-03T21:55:42.498Z,100.00
2018-09-03T21:58:12.630Z,100.00
2018-09-03T22:00:44.177Z,100.00
2018-09-03T22:03:13.286Z,100.00
2018-09-03T22:05:42.684Z,100.00
2018-09-03T22:08:12.694Z,100.00
2018-09-03T22:10:42.574Z,100.00
2018-09-03T22:13:12.844Z,100.00
2018-09-03T22:15:42.685Z,100.00
2018-09-03T22:18:12.838Z,100.00
2018-09-03T22:20:42.910Z,100.00
2018-09-03T22:23:12.905Z,100.00
2018-09-03T22:25:42.950Z,100.00
2018-09-03T22:28:12.884Z,100.00
2018-09-03T22:30:43.045Z,100.00
2018-09-03T22:33:12.909Z,100.00
2018-09-03T22:35:43.055Z,100.00
2018-09-03T22:38:12.914Z,100.00
2018-09-03T22:40:43.047Z,100.00
2018-09-03T22:43:12.953Z,100.00
2018-09-03T22:45:43.097Z,100.00
2018-09-03T22:48:12.981Z,100.00
2018-09-03T22:50:43.228Z,100.00
2018-09-03T22:53:13.788Z,100.00
2018-09-03T22:55:43.170Z,100.00
2018-09-03T22:58:13.446Z,100.00
2018-09-03T23:00:43.220Z,100.00
2018-09-03T23:03:13.295Z,100.00
2018-09-03T23:05:43.340Z,100.00
2018-09-03T23:08:13.375Z,100.00
2018-09-03T23:10:43.303Z,100.00
2018-09-03T23:13:13.517Z,100.00
2018-09-03T23:15:57.631Z,100.00
2018-09-03T23:18:26.836Z,100.00
2018-09-03T23:20:55.989Z,100.00
2018-09-03T23:23:25.163Z,100.00
2018-09-03T23:25:54.249Z,100.00
2018-09-03T23:28:23.369Z,100.00
2018-09-03T23:30:52.451Z,100.00
2018-09-03T23:33:21.519Z,100.00
2018-09-03T23:35:50.633Z,100.00
2018-09-03T23:38:19.727Z,100.00
2018-09-03T23:40:48.917Z,100.00
2018-09-03T23:43:18.029Z,100.00
2018-09-03T23:45:47.097Z,100.00
2018-09-03T23:48:16.188Z,100.00
2018-09-03T23:50:45.333Z,100.00
2018-09-03T23:53:14.555Z,100.00
2018-09-03T23:55:43.835Z,100.00
2018-09-03T23:58:13.941Z,100.00
